University Park, Florida
Current Conditions -  °F | °C
As of 5:53 AM on Thursday 27 Nov 2014 (Local Time) from KSRQ Reporting Station
Clear Clear  
Wind Chill: 47°   Ceiling: Unl
Heat Index: 47°   Visibility: 10mi
Dew Point: 45°   Wind: 3mph
Humidity: 93%   Direction: 60°ENE
Pressure: 30.26"   Gusts: NA
Location:  27.3998°N, 82.4742°W
Report Text: KSRQ 271053Z 06003KT 10SM CLR 08/07 A3026 RMK AO2 SLP247 T00830072
Loading
Personal Weather Stations






























Interactive Weather Map New forecast layout! Learn more

10-Day Weather Forecast

Advertisements
Track Severe Weather on mobile